Terminal Aerodrome Forecast
Issued by NWS

Home | Current Version | Previous Version | Text Only | Print | Product List | Glossary On
Versions: 1 2 3 4 5 6 7 8 9 10 11 12 13 14 15 16 17
000
FTUS43 KMQT 261200 AAA
TAFCMX
TAF AMD
KCMX 261237Z 2613/2712 20004KT 1 1/2SM BR OVC005
     FM261400 28008KT 4SM BR BKN015
     FM261700 30009KT P6SM SCT025
     FM270000 VRB03KT P6SM SCT050 BKN100
     FM270500 VRB04KT 5SM -SHRA BR BKN035
     FM270900 10007KT 4SM -SHRA BR OVC015=

USA.gov is the U.S. government's official web portal to all federal, state and local government web resources and services.